Terminal Aerodrome Forecast
Issued by NWS Paducah, KY

Home | Current Version | Previous Version | Text Only | Print | Product List | Glossary On
Versions: 1 2 3 4 5 6 7 8 9 10 11 12 13 14
000
FTUS43 KPAH 240911 AAA
TAFEVV
TAF AMD
KEVV 240911Z 2409/2506 17005KT P6SM SCT025
      TEMPO 2409/2412 BKN025
     FM241730 19007KT P6SM VCSH SCT028 BKN150
     FM250100 18006KT P6SM SKC=

USA.gov is the U.S. government's official web portal to all federal, state and local government web resources and services.